Eddyville, KY

9:40 PM CST on January 25, 2015 (GMT -0600)
The Ridge Eddycreek | Change Station
CLOSE
Current Station
Personal Weather Station
Location: Eddyville, KY
Elevation: 471 ft
Nearby Weather Stations

Elev 471 ft 37.02 °N, 88.01 °W | Updated 16 seconds ago

Overcast
Overcast
41.0 °F
Feels Like 41 °F
N
1.0
Wind Variable Wind from WNW
Gusts 12.0 mph

Today
High -- | Low -- °F
--% Chance of Precip.
Yesterday
High -- | Low -- °F
Precip. -- in
7:00 AM 5:09 PM
Waxing Crescent, 38% visible
Pressure 29.75 in
Visibility 2.5 miles
Clouds Overcast 500 ft
Windchill 41 °F
Dew Point 40 °F
Humidity 96%
Rainfall 0.54 in
Snow Depth Not available.
UV 0 out of 12
Pollen .10 out of 12
Air Quality Not available.
Flu Activity Not available.
METAR K5M9 260315Z AUTO 34009G15KT 2 1/2SM +DZ OVC005 04/04 A2975 RMK AO2 T00400038

More Conditions Fewer Conditions

Pressure 29.75 in
Visibility 2.5 miles
Clouds Overcast 500 ft
Windchill 41 °F
Dew Point 40 °F
Humidity 96%
Rainfall 0.54 in
Snow Depth Not available.
UV 0 out of 12
Pollen .10 out of 12
Air Quality Not available.
Flu Activity Not available.
METAR K5M9 260315Z AUTO 34009G15KT 2 1/2SM +DZ OVC005 04/04 A2975 RMK AO2 T00400038

More Conditions Fewer Conditions

10-Day Weather Forecast

Almanac

Astronomy

Jan. 25, 2015 Rise Set
Actual Time
Civil Twilight
Nautical Twilight
Astronomical Twilight
Moon
Length of Visible Light
Length of Day
Tomorrow will be .
, % of the Moon is Illuminated

Today's Extremes

State Highs State Lows

Community

WunderPhotos

Upload Photos

1,790,106 photos uploaded!

WunderBlogs® & News

Nearby

Air Quality

  Air Quality AQ Index Pollutant
Not available.

Snow Depth

Station Depth Elevation

Earthquake Activity

City Distance Mag. Time & Date
Minimum magnitude displayed is 2.5.

Coastal Water Temperatures

Place Temperature

Nearby Weather Stations